Terminal Aerodrome Forecast
Issued by NWS Tallahassee, FL

Home | Current Version | Previous Version | Text Only | Print | Product List | Glossary On
Versions: 1 2 3 4 5 6 7 8 9 10 11 12
000
FTUS42 KTAE 301100
TAFTLH
TAF
KTLH 301120Z 3012/3112 30007KT P6SM FEW019 SCT030 OVC060
     FM301400 34010G15KT P6SM FEW250
     FM310000 36004KT P6SM SKC=

USA.gov is the U.S. government's official web portal to all federal, state and local government web resources and services.